Chita, Russia

7:12 AM YAKT on February 09, 2016 (GMT +0900)
Kadala | | Change Station
CLOSE
Current Station
Airport
Location: Chita,
Elevation: 2270 ft
Nearby Weather Stations

Elev 2270 ft 52.03 °N, 113.31 °E | Updated 12 minutes ago

Clear
Clear
-9 °F
Feels Like -9 °F
N
2
Wind Variable Wind from Variable

Today
High -- | Low -- °F
--% Chance of Precip.
Yesterday
High -- | Low -- °F
Precip. -- in
Pressure 29.77 in
Visibility 6.2 miles
Clouds
Dew Point -13 °F
Humidity 84%
Rainfall 0.00 in
Snow Depth Not available.
8:54 AM 6:27 PM
New Moon, 0% visible
METAR UIAA 082200Z VRB01MPS 9999 NSC M23/M25 Q1008 R29/CLRD70 NOSIG RMK QFE698
Pressure 29.77 in
Visibility 6.2 miles
Clouds
Dew Point -13 °F
Humidity 84%
Rainfall 0.00 in
Snow Depth Not available.
8:54 AM 6:27 PM
New Moon, 0% visible
METAR UIAA 082200Z VRB01MPS 9999 NSC M23/M25 Q1008 R29/CLRD70 NOSIG RMK QFE698

10-Day Weather Forecast

Almanac

Astronomy

Feb. 09, 2016 Rise Set
Actual Time
Civil Twilight
Nautical Twilight
Astronomical Twilight
Moon
Length of Visible Light
Length of Day
Tomorrow will be .
, % of the Moon is Illuminated

Today's Extremes

Country Highs Country Lows

Community

WunderPhotos

Upload Photos

1,891,516 photos uploaded!

WunderBlog® & News

Nearby

Air Quality

  Air Quality AQ Index Pollutant
Not available.

Snow Depth

Station Depth Elevation

Earthquake Activity

City Distance Mag. Time & Date
Minimum magnitude displayed is 2.5.

Coastal Water Temperatures

Place Temperature

Stations

Nearby Weather Stations

Station Location Temp. Windchill Dew Point Humidity Wind Precip. Elev Updated Type